Terminal Aerodrome Forecast
Issued by NWS Jacksonville, FL

Home | Current Version | Previous Version | Text Only | Print | Product List | Glossary On
Versions: 1 2 3 4 5 6 7 8 9 10 11 12 13 14 15 16 17 18 19 20 21 22 23 24 25 26 27 28
667
FTUS42 KJAX 231929 AAB
TAFJAX
TAF AMD
KJAX 231929Z 2319/2418 25010G20KT P6SM SCT025 BKN035
     FM232100 27008G15KT P6SM FEW030
     FM240500 31004KT P6SM BKN250
     FM241400 35006KT P6SM BKN250=

USA.gov is the U.S. government's official web portal to all federal, state and local government web resources and services.